HorshamWeather.Com Historical Data
 
Daily Summary for March 03, 2015 Units:  English    Metric   Both
« Previous Day
Next Day »
Daily Weekly Monthly Yearly Custom
  Current: High: Low: Average:
Temperature: 20.1 °F 26.0 °F 18.1 °F 22 °F
Dew Point: 13.8 °F 13.9 °F 10.9 °F 12 °F
Humidity: 76% 78% 53% 65%
Wind Speed: 0.0mph 5.0mph 0.0mph 1.9mph
Wind Gust: 1.0mph 13.0mph - -
WindCalm - - SSW
Pressure: 30.46 in 30.46 in 30.41 in -
Precipitation: 0.00 in      
Historical Graphs
 
 
Tabular Data for March 03, 2015
Time Temperature Dew Point Pressure Wind Wind Speed Wind Gust Humidity Rainfall Rate (Hourly)
00:04 25.9 °F 12.8 °F 30.41 in Calm     57% 0.00 in
00:09 25.7 °F 12.2 °F 30.41 in Calm   1.0 mph 56% 0.00 in
00:14 25.7 °F 11.4 °F 30.41 in North 2.0 mph 5.0 mph 54% 0.00 in
00:19 25.9 °F 11.6 °F 30.41 in North 2.0 mph 5.0 mph 54% 0.00 in
00:24 26.0 °F 11.6 °F 30.41 in NNW 1.0 mph 5.0 mph 54% 0.00 in
00:29 25.9 °F 12.0 °F 30.41 in NNE 2.0 mph 6.0 mph 55% 0.00 in
00:34 25.9 °F 11.6 °F 30.41 in North 1.0 mph 1.0 mph 54% 0.00 in
00:39 25.9 °F 11.1 °F 30.41 in Calm   5.0 mph 53% 0.00 in
00:44 25.9 °F 11.6 °F 30.42 in Calm   1.0 mph 54% 0.00 in
00:49 25.8 °F 11.0 °F 30.41 in NNE 4.0 mph 13.0 mph 53% 0.00 in
00:54 25.8 °F 11.5 °F 30.41 in NNE 2.0 mph 3.0 mph 54% 0.00 in
00:59 25.7 °F 11.4 °F 30.42 in ENE 3.0 mph 3.0 mph 54% 0.00 in
01:04 25.7 °F 10.9 °F 30.42 in NNW 1.0 mph 2.0 mph 53% 0.00 in
01:09 25.5 °F 11.6 °F 30.42 in NNW 1.0 mph 4.0 mph 55% 0.00 in
01:14 25.2 °F 11.3 °F 30.42 in Calm   5.0 mph 55% 0.00 in
01:19 25.1 °F 11.2 °F 30.43 in North 2.0 mph 3.0 mph 55% 0.00 in
01:24 24.9 °F 11.4 °F 30.43 in NNW 1.0 mph 5.0 mph 56% 0.00 in
01:29 24.6 °F 11.6 °F 30.42 in North 5.0 mph 7.0 mph 57% 0.00 in
01:34 24.5 °F 11.1 °F 30.43 in NNE 2.0 mph 2.0 mph 56% 0.00 in
01:39 24.5 °F 11.1 °F 30.43 in North 2.0 mph 3.0 mph 56% 0.00 in
01:44 24.5 °F 11.5 °F 30.43 in North 1.0 mph 1.0 mph 57% 0.00 in
01:49 24.4 °F 11.4 °F 30.43 in North 2.0 mph 2.0 mph 57% 0.00 in
01:54 24.3 °F 11.3 °F 30.43 in NW 2.0 mph 2.0 mph 57% 0.00 in
01:59 24.2 °F 11.6 °F 30.43 in Calm     58% 0.00 in
02:04 24.1 °F 11.5 °F 30.43 in North 2.0 mph 3.0 mph 58% 0.00 in
02:09 23.9 °F 11.7 °F 30.43 in NNW 4.0 mph 4.0 mph 59% 0.00 in
02:14 23.7 °F 11.5 °F 30.43 in North 3.0 mph 3.0 mph 59% 0.00 in
02:19 23.6 °F 11.8 °F 30.43 in NNW 2.0 mph 2.0 mph 60% 0.00 in
02:24 23.5 °F 11.7 °F 30.43 in Calm     60% 0.00 in
02:29 23.4 °F 11.6 °F 30.42 in NNE 1.0 mph 2.0 mph 60% 0.00 in
02:34 23.2 °F 12.1 °F 30.42 in North 2.0 mph 4.0 mph 62% 0.00 in
02:39 23.0 °F 11.6 °F 30.42 in Calm   1.0 mph 61% 0.00 in
02:44 22.9 °F 11.5 °F 30.43 in Calm   1.0 mph 61% 0.00 in
02:50 22.8 °F 12.1 °F 30.42 in NNW 2.0 mph 2.0 mph 63% 0.00 in
02:55 22.5 °F 12.5 °F 30.42 in Calm   1.0 mph 65% 0.00 in
03:00 22.2 °F 12.2 °F 30.43 in Calm     65% 0.00 in
03:05 22.0 °F 12.4 °F 30.42 in NNW 3.0 mph 3.0 mph 66% 0.00 in
03:10 21.6 °F 12.4 °F 30.42 in Calm   1.0 mph 67% 0.00 in
03:15 21.5 °F 11.9 °F 30.43 in Calm   1.0 mph 66% 0.00 in
03:20 21.3 °F 11.7 °F 30.42 in Calm     66% 0.00 in
03:25 21.2 °F 12.0 °F 30.42 in Calm     67% 0.00 in
03:30 21.0 °F 11.8 °F 30.43 in West 1.0 mph 1.0 mph 67% 0.00 in
03:35 20.8 °F 11.9 °F 30.42 in Calm   1.0 mph 68% 0.00 in
03:40 20.6 °F 11.7 °F 30.42 in Calm     68% 0.00 in
03:45 20.3 °F 11.8 °F 30.42 in Calm     69% 0.00 in
03:50 20.1 °F 11.9 °F 30.42 in Calm     70% 0.00 in
03:55 19.8 °F 11.6 °F 30.42 in Calm     70% 0.00 in
04:00 19.5 °F 12.0 °F 30.42 in Calm   1.0 mph 72% 0.00 in
04:05 19.3 °F 12.1 °F 30.42 in South 2.0 mph 3.0 mph 73% 0.00 in
04:10 19.1 °F 11.9 °F 30.42 in South 2.0 mph 2.0 mph 73% 0.00 in
04:15 19.0 °F 12.1 °F 30.43 in South 3.0 mph 3.0 mph 74% 0.00 in
04:20 18.9 °F 11.7 °F 30.43 in South 2.0 mph 3.0 mph 73% 0.00 in
04:25 18.9 °F 12.0 °F 30.43 in South 2.0 mph 3.0 mph 74% 0.00 in
04:30 18.8 °F 11.9 °F 30.43 in SSW 1.0 mph 1.0 mph 74% 0.00 in
04:35 18.8 °F 12.2 °F 30.44 in Calm     75% 0.00 in
04:40 18.6 °F 12.0 °F 30.44 in Calm     75% 0.00 in
04:45 18.6 °F 12.0 °F 30.45 in SW 1.0 mph 1.0 mph 75% 0.00 in
04:50 18.4 °F 11.8 °F 30.45 in Calm   1.0 mph 75% 0.00 in
04:55 18.3 °F 11.7 °F 30.45 in Calm     75% 0.00 in
05:00 18.2 °F 11.9 °F 30.44 in SW 1.0 mph 1.0 mph 76% 0.00 in
05:05 18.1 °F 11.8 °F 30.44 in SW 1.0 mph 1.0 mph 76% 0.00 in
05:10 18.1 °F 12.1 °F 30.44 in Calm     77% 0.00 in
05:15 18.1 °F 12.1 °F 30.44 in Calm     77% 0.00 in
05:20 18.2 °F 12.5 °F 30.44 in Calm   1.0 mph 78% 0.00 in
05:25 18.4 °F 12.7 °F 30.44 in Calm   1.0 mph 78% 0.00 in
05:30 18.7 °F 13.0 °F 30.44 in Calm     78% 0.00 in
05:35 18.8 °F 13.1 °F 30.44 in Calm     78% 0.00 in
05:40 19.1 °F 13.4 °F 30.44 in Calm     78% 0.00 in
05:45 19.3 °F 13.6 °F 30.45 in SW 1.0 mph 1.0 mph 78% 0.00 in
05:50 19.4 °F 13.7 °F 30.45 in Calm     78% 0.00 in
05:55 19.6 °F 13.6 °F 30.45 in WSW 2.0 mph 2.0 mph 77% 0.00 in
06:00 19.9 °F 13.9 °F 30.46 in West 1.0 mph 2.0 mph 77% 0.00 in
06:05 20.1 °F 13.8 °F 30.46 in Calm   1.0 mph 76% 0.00 in
HorshamWeather.Com
Compliments of Weather Underground